createdAt,value
2024-02-14T00:03:53.732Z,5.2
2024-02-14T00:09:32.800Z,5.2
2024-02-14T00:14:40.627Z,5.2
2024-02-14T00:20:04.919Z,5.1
2024-02-14T00:25:28.451Z,5.2
2024-02-14T00:31:08.543Z,5.1
2024-02-14T00:36:34.402Z,5.1
2024-02-14T00:41:57.487Z,5.1
2024-02-14T00:47:21.577Z,5.1
2024-02-14T00:53:02.429Z,5.1
2024-02-14T00:58:41.147Z,5.1
2024-02-14T01:04:20.852Z,5.1
2024-02-14T01:10:00.704Z,5.1
2024-02-14T01:15:40.102Z,5.1
2024-02-14T01:21:04.583Z,5.1
2024-02-14T08:08:34.292Z,9.5
2024-02-14T08:14:15.299Z,9.6
2024-02-14T08:19:44.227Z,9.8
2024-02-14T08:25:12.095Z,9.8
2024-02-14T08:30:51.775Z,9.8
2024-02-14T08:36:39.130Z,9.8
2024-02-14T08:42:17.996Z,9.6
2024-02-14T08:47:58.719Z,9.5
2024-02-14T08:53:46.141Z,9.4
2024-02-14T08:59:26.798Z,9.4
2024-02-14T09:05:21.965Z,9.3
2024-02-14T09:11:01.584Z,9.2
2024-02-14T09:16:41.351Z,9.2
2024-02-14T09:22:22.647Z,9.3
2024-02-14T09:28:01.706Z,9.4
2024-02-14T09:33:39.516Z,9.7
2024-02-14T09:39:21.193Z,9.9
2024-02-14T09:45:00.338Z,10.1
2024-02-14T09:50:45.306Z,10.3
2024-02-14T09:56:24.872Z,10.5
2024-02-14T10:02:05.320Z,10.6
2024-02-14T10:07:45.647Z,10.6
2024-02-14T10:13:22.387Z,10.7
2024-02-14T10:19:04.227Z,10.7
2024-02-14T10:24:44.720Z,10.8
2024-02-14T10:30:29.607Z,10.9
2024-02-14T10:36:23.405Z,11.2
2024-02-14T10:42:05.402Z,11.4
2024-02-14T10:47:45.052Z,11.5
2024-02-14T10:53:25.211Z,11.5
2024-02-14T10:59:03.978Z,11.4
2024-02-14T11:04:30.077Z,11.3
2024-02-14T11:10:11.090Z,11.1
2024-02-14T11:15:49.453Z,10.8
2024-02-14T11:21:31.375Z,10.5
2024-02-14T11:27:16.655Z,10.3
2024-02-14T11:33:05.297Z,9.9
2024-02-14T11:38:46.322Z,9.8
2024-02-14T11:44:28.304Z,9.6
2024-02-14T11:50:10.655Z,9.4
2024-02-14T11:55:50.016Z,9.3
2024-02-14T12:01:30.381Z,9.1
2024-02-14T12:07:10.800Z,8.9
2024-02-14T12:12:50.796Z,8.8
2024-02-14T12:18:30.967Z,8.7
2024-02-14T12:24:10.142Z,8.6
2024-02-14T12:29:49.922Z,8.6
2024-02-14T12:35:38.359Z,8.6
2024-02-14T12:41:16.411Z,8.8
2024-02-14T12:46:55.668Z,8.9
2024-02-14T12:52:35.750Z,9
2024-02-14T12:58:13.973Z,9.1
2024-02-14T13:03:54.037Z,9.1
2024-02-14T13:09:34.872Z,9.1
2024-02-14T13:15:13.455Z,9
2024-02-14T13:20:55.271Z,8.9
2024-02-14T13:26:33.703Z,8.9
2024-02-14T13:31:56.445Z,8.8
2024-02-14T13:37:37.640Z,8.7
2024-02-14T13:43:17.583Z,8.7
2024-02-14T13:48:58.586Z,8.6
2024-02-14T13:54:39.793Z,8.6
2024-02-14T14:00:19.611Z,8.5
2024-02-14T14:05:57.522Z,8.5
2024-02-14T14:11:53.767Z,8.4
2024-02-14T14:17:35.368Z,8.4
2024-02-14T14:23:16.329Z,8.3
2024-02-14T14:29:01.249Z,8.3
2024-02-14T14:34:45.772Z,8.3
2024-02-14T14:40:27.641Z,8.1
2024-02-14T14:45:51.402Z,8.1
2024-02-14T14:51:34.170Z,7.9
2024-02-14T14:57:16.931Z,7.8
2024-02-14T15:02:59.447Z,7.7
2024-02-14T15:08:23.878Z,7.6
2024-02-14T15:14:04.594Z,7.4
2024-02-14T15:19:46.920Z,7.3
2024-02-14T15:25:29.451Z,7.2
2024-02-14T15:31:08.519Z,7.1
2024-02-14T15:36:49.422Z,6.9
2024-02-14T15:42:28.145Z,6.8
2024-02-14T15:47:51.050Z,6.8
2024-02-14T15:53:16.294Z,6.7
2024-02-14T15:58:55.261Z,6.5
2024-02-14T16:04:34.475Z,6.4
2024-02-14T16:10:14.251Z,6.3
2024-02-14T16:15:53.684Z,6.2
2024-02-14T16:21:35.724Z,6.1
2024-02-14T16:27:28.825Z,6
2024-02-14T16:33:07.279Z,5.9
2024-02-14T16:38:47.598Z,5.8
2024-02-14T16:44:41.581Z,5.7
2024-02-14T16:50:24.338Z,5.6
2024-02-14T16:56:06.620Z,5.5
2024-02-14T17:01:34.127Z,5.4
2024-02-14T17:07:27.493Z,5.4
2024-02-14T17:13:08.791Z,5.3
2024-02-14T17:18:35.534Z,5.3
2024-02-14T17:24:24.808Z,5.2
2024-02-14T17:30:03.317Z,5.1
2024-02-14T17:35:56.861Z,5.1
2024-02-14T17:41:35.756Z,5
2024-02-14T17:46:58.629Z,5
2024-02-14T17:52:39.016Z,4.9
2024-02-14T17:58:17.622Z,4.9
2024-02-14T18:03:56.665Z,4.9
2024-02-14T18:09:23.512Z,4.9
2024-02-14T18:15:04.424Z,4.9
2024-02-14T18:20:28.206Z,4.8
2024-02-14T18:26:08.823Z,4.8
2024-02-14T18:31:47.272Z,4.8
2024-02-14T18:37:14.227Z,4.8
2024-02-14T18:42:53.667Z,4.7
2024-02-14T18:48:32.169Z,4.7
2024-02-14T18:54:11.595Z,4.6
2024-02-14T18:59:50.355Z,4.6
2024-02-14T19:05:31.283Z,4.6
2024-02-14T19:11:10.223Z,4.5
2024-02-14T19:17:01.802Z,4.4
2024-02-14T19:22:42.352Z,4.4
2024-02-14T19:28:21.161Z,4.4
